aviador You're here:

KBIL Decoded Metar

BILLINGS in MT, USA
Report Time2017-11-25 04:53:00
UTC Time2017-11-25 05:28:04
Flight Rules vfr VFR
WindCalm
Visibility9999 m
Phenomena:N/A
Clouds:N/A
Expected CloudBase > 4,000 ft AGL from Temp-Dew spread
CeilingNone
Temp04°C (ISA -4)
Dew Point-6°C (48% RH)
AAT1.3°C
QNH1016 hPa
Density Alt3,074 ft
Elevation3,579 ft
Report Wrong Elevation
Raw Report
KBIL 250453Z 00000KT 10SM CLR 04/M06 A3000 RMK AO2 SLP167
T00391056=

Extra information for KBIL:More info

Metar Taf Metar & Taf Last 4 Metars F.Rules Stats Wind Profile Meteogram Temp Stats Airport Information Weather charts Add Link Nearby VenuesMetar ALERT Operation Metar Decoded Social comments

AIRNAV info for KBIL